Terminal Aerodrome Forecast
Issued by NWS

Home | Current Version | Previous Version | Graphics & Text | Print | Product List | Glossary Off
Versions: 1 2 3 4 5 6 7 8 9 10 11 12 13 14 15 16 17 18 19 20

000
FTUS43 KDDC 162343 RRA
TAFHYS
TAF
KHYS 162343Z 1700/1724 16013KT P6SM FEW250
     FM170700 18012KT P6SM BKN015
     FM171000 18011KT P6SM BKN040
     FM171800 21015G22KT P6SM BKN200=

USA.gov is the U.S. government's official web portal to all federal, state and local government web resources and services.